createdAt,value
2017-05-07T00:01:21.689Z,28.57
2017-05-07T00:03:49.386Z,26.80
2017-05-07T00:06:17.005Z,28.20
2017-05-07T00:08:44.616Z,26.55
2017-05-07T00:11:12.130Z,23.97
2017-05-07T00:13:40.046Z,24.00
2017-05-07T00:16:08.357Z,24.72
2017-05-07T00:18:36.214Z,25.72
2017-05-07T00:21:03.865Z,25.90
2017-05-07T00:23:31.510Z,24.62
2017-05-07T00:25:59.061Z,23.68
2017-05-07T00:28:27.338Z,24.47
2017-05-07T00:30:55.623Z,25.18
2017-05-07T00:33:23.883Z,23.62
2017-05-07T00:35:51.403Z,24.15
2017-05-07T00:38:19.121Z,26.75
2017-05-07T00:40:47.412Z,25.23
2017-05-07T00:43:14.951Z,25.82
2017-05-07T00:45:43.283Z,25.20
2017-05-07T00:48:10.775Z,25.32
2017-05-07T00:50:39.086Z,25.57
2017-05-07T00:53:06.859Z,27.23
2017-05-07T00:55:34.428Z,25.57
2017-05-07T00:58:03.047Z,24.82
2017-05-07T01:00:30.584Z,22.28
2017-05-07T01:02:58.085Z,25.38
2017-05-07T01:05:25.607Z,24.90
2017-05-07T01:07:53.151Z,23.82
2017-05-07T01:10:20.911Z,23.00
2017-05-07T01:12:48.463Z,26.20
2017-05-07T01:15:15.979Z,28.68
2017-05-07T01:17:43.721Z,29.08
2017-05-07T01:20:11.275Z,27.08
2017-05-07T01:22:39.591Z,28.58
2017-05-07T01:25:07.099Z,26.00
2017-05-07T01:27:35.409Z,27.17
2017-05-07T01:30:02.927Z,28.98
2017-05-07T01:32:30.445Z,28.15
2017-05-07T01:34:57.952Z,31.15
2017-05-07T01:37:26.261Z,32.07
2017-05-07T01:39:54.054Z,27.98
2017-05-07T01:42:21.581Z,30.98
2017-05-07T01:44:49.134Z,32.18
2017-05-07T01:47:16.905Z,32.82
2017-05-07T01:49:44.408Z,30.33
2017-05-07T01:52:12.007Z,30.37
2017-05-07T01:54:39.507Z,29.07
2017-05-07T01:57:07.068Z,28.35
2017-05-07T01:59:34.576Z,27.67
2017-05-07T02:02:02.149Z,27.92
2017-05-07T02:04:29.892Z,28.07
2017-05-07T02:06:57.412Z,25.80
2017-05-07T02:09:25.032Z,29.43
2017-05-07T02:11:52.559Z,29.58
2017-05-07T02:14:21.115Z,26.33
2017-05-07T02:16:48.677Z,27.17
2017-05-07T02:19:16.514Z,22.72
2017-05-07T02:21:44.077Z,23.68
2017-05-07T02:24:11.596Z,23.80
2017-05-07T02:26:39.160Z,25.88
2017-05-07T02:29:06.747Z,27.90
2017-05-07T02:31:34.255Z,26.70
2017-05-07T02:34:02.003Z,27.35
2017-05-07T02:36:30.271Z,25.30
2017-05-07T02:38:58.757Z,25.47
2017-05-07T02:41:26.540Z,23.13
2017-05-07T02:43:54.327Z,23.75
2017-05-07T02:46:22.059Z,24.52
2017-05-07T02:48:49.580Z,24.12
2017-05-07T02:51:17.331Z,26.03
2017-05-07T02:53:44.865Z,25.97
2017-05-07T02:56:12.613Z,28.23
2017-05-07T02:58:40.141Z,25.40
2017-05-07T03:01:08.484Z,25.88
2017-05-07T03:03:36.089Z,27.98
2017-05-07T03:06:03.588Z,26.13
2017-05-07T03:08:31.113Z,24.23
2017-05-07T03:10:58.624Z,26.03
2017-05-07T03:13:26.230Z,24.63
2017-05-07T03:15:53.983Z,25.60
2017-05-07T03:18:21.554Z,24.87
2017-05-07T03:20:49.198Z,22.83
2017-05-07T03:23:16.741Z,23.88
2017-05-07T03:25:45.009Z,23.83
2017-05-07T03:28:13.505Z,21.07
2017-05-07T03:30:41.029Z,23.03
2017-05-07T03:33:08.564Z,24.15
2017-05-07T03:35:36.088Z,24.23
2017-05-07T03:38:03.826Z,23.82
2017-05-07T03:40:32.189Z,23.68
2017-05-07T03:42:59.730Z,23.82
2017-05-07T03:45:27.299Z,24.45
2017-05-07T03:47:54.792Z,25.35
2017-05-07T03:50:22.368Z,24.12
2017-05-07T03:52:49.876Z,23.30
2017-05-07T03:55:17.763Z,24.77
2017-05-07T03:57:45.306Z,24.10
2017-05-07T04:00:13.596Z,27.07
2017-05-07T04:02:41.089Z,25.55
2017-05-07T04:05:08.655Z,26.23
2017-05-07T04:07:36.216Z,29.22
2017-05-07T04:10:03.744Z,27.75
2017-05-07T04:12:31.247Z,28.27
2017-05-07T04:14:58.828Z,28.27
2017-05-07T04:17:27.214Z,25.70
2017-05-07T04:19:54.802Z,27.20
2017-05-07T04:22:22.355Z,27.75
2017-05-07T04:24:50.006Z,28.30
2017-05-07T04:27:17.539Z,29.68
2017-05-07T04:29:45.804Z,35.32
2017-05-07T04:32:14.093Z,30.83
2017-05-07T04:34:42.416Z,32.87
2017-05-07T04:37:09.999Z,30.45
2017-05-07T04:39:37.535Z,30.33
2017-05-07T04:42:05.096Z,29.75
2017-05-07T04:44:32.879Z,32.13
2017-05-07T04:47:00.459Z,29.05
2017-05-07T04:49:28.719Z,30.33
2017-05-07T04:51:56.243Z,29.07
2017-05-07T04:54:23.779Z,31.20
2017-05-07T04:56:51.363Z,29.33
2017-05-07T04:59:19.105Z,30.32
2017-05-07T05:01:46.644Z,32.10
2017-05-07T05:04:14.214Z,33.55
2017-05-07T05:06:41.792Z,31.55
2017-05-07T05:09:10.047Z,32.92
2017-05-07T05:11:37.814Z,31.53
2017-05-07T05:14:05.992Z,34.98
2017-05-07T05:16:33.567Z,34.32
2017-05-07T05:19:15.987Z,35.05
2017-05-07T05:25:05.242Z,34.52
2017-05-07T05:27:47.677Z,30.67
2017-05-07T05:30:30.193Z,33.90
2017-05-07T05:32:58.020Z,33.33
2017-05-07T05:35:26.640Z,29.95
2017-05-07T05:37:54.467Z,34.77
2017-05-07T05:40:22.922Z,32.82
2017-05-07T05:42:51.232Z,33.15
2017-05-07T05:45:19.511Z,32.05
2017-05-07T05:47:47.827Z,33.97
2017-05-07T05:50:16.124Z,31.83
2017-05-07T05:52:43.630Z,31.88
2017-05-07T05:55:11.159Z,35.23
2017-05-07T05:57:38.729Z,33.00
2017-05-07T06:00:06.274Z,33.93
2017-05-07T06:02:33.815Z,33.63
2017-05-07T06:05:01.373Z,32.48
2017-05-07T06:07:30.471Z,31.63
2017-05-07T06:09:58.091Z,32.20
2017-05-07T06:12:26.431Z,29.90
2017-05-07T06:14:54.004Z,30.83
2017-05-07T06:17:21.606Z,29.42
2017-05-07T06:19:49.402Z,30.05
2017-05-07T06:22:16.919Z,30.53
2017-05-07T06:24:44.432Z,30.55
2017-05-07T06:27:12.013Z,29.95
2017-05-07T06:29:39.836Z,29.62
2017-05-07T06:32:07.375Z,31.58
2017-05-07T06:34:34.887Z,30.58
2017-05-07T06:37:02.466Z,31.07
2017-05-07T06:39:30.028Z,29.53
2017-05-07T06:41:58.369Z,32.57
2017-05-07T06:44:25.976Z,29.45
2017-05-07T06:46:53.743Z,31.53
2017-05-07T06:49:22.011Z,30.30
2017-05-07T06:51:49.544Z,30.95
2017-05-07T06:54:18.106Z,32.92
2017-05-07T06:56:45.695Z,31.82
2017-05-07T06:59:14.000Z,34.65
2017-05-07T07:01:41.552Z,31.48
2017-05-07T07:04:09.116Z,32.95
2017-05-07T07:06:36.984Z,34.25
2017-05-07T07:09:05.340Z,35.35
2017-05-07T07:11:32.884Z,32.23
2017-05-07T07:14:00.707Z,30.38
2017-05-07T07:16:28.319Z,29.23
2017-05-07T07:18:55.855Z,28.28
2017-05-07T07:21:24.155Z,29.15
2017-05-07T07:23:52.443Z,26.93
2017-05-07T07:26:20.036Z,28.73
2017-05-07T07:28:47.643Z,25.57
2017-05-07T07:31:15.913Z,26.43
2017-05-07T07:33:43.447Z,27.03
2017-05-07T07:36:12.106Z,25.28
2017-05-07T07:38:40.778Z,20.38
2017-05-07T07:41:09.347Z,22.90
2017-05-07T07:43:36.990Z,20.50
2017-05-07T07:46:04.496Z,20.47
2017-05-07T07:48:32.023Z,20.28
2017-05-07T07:51:00.607Z,23.38
2017-05-07T07:53:28.194Z,21.87
2017-05-07T07:55:56.508Z,22.57
2017-05-07T07:58:25.913Z,21.42
2017-05-07T08:00:53.440Z,22.93
2017-05-07T08:03:21.998Z,22.87
2017-05-07T08:05:50.299Z,22.32
2017-05-07T08:08:17.857Z,20.20
2017-05-07T08:10:47.119Z,21.53
2017-05-07T08:13:15.691Z,23.90
2017-05-07T08:15:44.024Z,23.97
2017-05-07T08:18:11.532Z,24.55
2017-05-07T08:20:40.096Z,23.88
2017-05-07T08:23:07.616Z,25.32
2017-05-07T08:25:36.283Z,25.47
2017-05-07T08:28:04.593Z,24.52
2017-05-07T08:30:32.128Z,25.27
2017-05-07T08:33:00.399Z,25.52
2017-05-07T08:35:28.927Z,25.98
2017-05-07T08:37:56.516Z,23.93
2017-05-07T08:40:25.527Z,20.53
2017-05-07T08:42:53.837Z,22.88
2017-05-07T08:45:22.180Z,30.95
2017-05-07T08:47:50.504Z,19.03
2017-05-07T08:50:18.001Z,19.60
2017-05-07T08:52:45.581Z,22.92
2017-05-07T08:55:14.124Z,25.35
2017-05-07T08:57:43.155Z,24.12
2017-05-07T09:00:10.687Z,22.12
2017-05-07T09:02:39.047Z,23.67
2017-05-07T09:05:06.583Z,17.20
2017-05-07T09:07:34.111Z,15.12
2017-05-07T09:10:01.621Z,18.07
2017-05-07T09:12:47.890Z,17.03
2017-05-07T09:15:45.148Z,21.27
2017-05-07T09:18:35.237Z,16.32
2017-05-07T09:21:03.543Z,17.02
2017-05-07T09:23:31.834Z,18.35
2017-05-07T09:25:59.440Z,18.62
2017-05-07T09:28:26.994Z,19.40
2017-05-07T09:30:55.303Z,21.18
2017-05-07T09:33:22.927Z,20.23
2017-05-07T09:35:50.483Z,25.57
2017-05-07T09:38:18.188Z,26.13
2017-05-07T09:40:46.526Z,21.88
2017-05-07T09:43:14.653Z,21.47
2017-05-07T09:45:43.084Z,22.50
2017-05-07T09:48:10.652Z,21.77
2017-05-07T09:50:38.229Z,20.45
2017-05-07T09:53:06.771Z,20.43
2017-05-07T09:55:35.072Z,22.93
2017-05-07T09:58:04.504Z,18.73
2017-05-07T10:00:34.051Z,20.17
2017-05-07T10:03:02.357Z,17.70
2017-05-07T10:05:32.212Z,19.80
2017-05-07T10:07:59.723Z,18.65
2017-05-07T10:10:27.271Z,17.77
2017-05-07T10:12:56.323Z,18.00
2017-05-07T10:15:24.309Z,20.05
2017-05-07T10:17:52.579Z,19.92
2017-05-07T10:20:20.144Z,19.68
2017-05-07T10:22:47.650Z,18.38
2017-05-07T10:25:17.113Z,20.10
2017-05-07T10:27:44.635Z,16.67
2017-05-07T10:30:13.295Z,14.98
2017-05-07T10:32:42.331Z,16.72
2017-05-07T10:35:09.855Z,16.48
2017-05-07T10:37:38.507Z,18.63
2017-05-07T10:40:06.048Z,22.12
2017-05-07T10:42:33.828Z,21.92
2017-05-07T10:45:02.114Z,20.82
2017-05-07T10:47:30.651Z,15.90
2017-05-07T10:49:58.167Z,17.63
2017-05-07T10:52:26.469Z,18.98
2017-05-07T10:54:53.972Z,18.13
2017-05-07T10:57:23.493Z,20.58
2017-05-07T10:59:52.207Z,18.32
2017-05-07T11:02:19.841Z,18.92
2017-05-07T11:04:47.344Z,21.28
2017-05-07T11:07:14.944Z,20.83
2017-05-07T11:09:42.622Z,21.37
2017-05-07T11:12:10.986Z,20.10
2017-05-07T11:14:39.275Z,21.42
2017-05-07T11:17:07.567Z,20.88
2017-05-07T11:19:35.115Z,18.58
2017-05-07T11:22:02.615Z,18.90
2017-05-07T11:24:30.284Z,18.05
2017-05-07T11:26:57.858Z,18.52
2017-05-07T11:29:27.329Z,15.57
2017-05-07T11:31:56.726Z,16.52
2017-05-07T11:34:24.259Z,14.85
2017-05-07T11:36:51.992Z,16.72
2017-05-07T11:39:20.623Z,16.10
2017-05-07T11:41:48.176Z,15.73
2017-05-07T11:44:15.691Z,17.73
2017-05-07T11:46:43.220Z,17.20
2017-05-07T11:49:10.741Z,16.60
2017-05-07T11:51:38.278Z,18.47
2017-05-07T11:54:05.848Z,17.50
2017-05-07T11:56:34.273Z,18.02
2017-05-07T11:59:02.448Z,17.93
2017-05-07T12:01:30.032Z,18.65
2017-05-07T12:03:58.356Z,17.63
2017-05-07T12:06:25.883Z,18.02
2017-05-07T12:08:53.556Z,20.00
2017-05-07T12:11:22.048Z,20.23
2017-05-07T12:13:50.327Z,21.73
2017-05-07T12:16:17.887Z,21.45
2017-05-07T12:18:45.415Z,20.74
2017-05-07T12:21:12.931Z,21.90
2017-05-07T12:23:40.484Z,20.48
2017-05-07T12:26:08.746Z,20.27
2017-05-07T12:28:37.803Z,19.43
2017-05-07T12:31:06.356Z,20.85
2017-05-07T12:33:34.680Z,18.62
2017-05-07T12:36:02.439Z,20.40
2017-05-07T12:38:29.999Z,19.38
2017-05-07T12:40:57.570Z,17.43
2017-05-07T12:43:26.603Z,20.90
2017-05-07T12:45:54.961Z,21.88
2017-05-07T12:48:22.493Z,20.55
2017-05-07T12:50:51.604Z,18.70
2017-05-07T12:53:20.678Z,22.53
2017-05-07T12:55:48.944Z,20.30
2017-05-07T12:58:17.252Z,19.58
2017-05-07T13:00:44.752Z,20.00
2017-05-07T13:03:13.352Z,19.80
2017-05-07T13:05:41.645Z,19.65
2017-05-07T13:08:10.689Z,19.45
2017-05-07T13:10:38.514Z,17.97
2017-05-07T13:13:07.567Z,16.08
2017-05-07T13:15:35.441Z,16.40
2017-05-07T13:18:03.715Z,15.58
2017-05-07T13:20:32.323Z,17.13
2017-05-07T13:23:00.587Z,16.22
2017-05-07T13:25:28.439Z,18.00
2017-05-07T13:27:56.760Z,15.28
2017-05-07T13:30:25.419Z,15.07
2017-05-07T13:32:52.917Z,15.75
2017-05-07T13:35:21.216Z,15.85
2017-05-07T13:37:49.832Z,16.93
2017-05-07T13:40:17.336Z,15.95
2017-05-07T13:42:45.636Z,15.37
2017-05-07T13:45:13.913Z,14.65
2017-05-07T13:47:41.431Z,16.00
2017-05-07T13:50:10.060Z,17.50
2017-05-07T13:52:37.609Z,14.88
2017-05-07T13:55:06.129Z,15.42
2017-05-07T13:57:34.417Z,13.95
2017-05-07T14:00:02.691Z,15.60
2017-05-07T14:02:31.025Z,15.92
2017-05-07T14:04:58.556Z,15.35
2017-05-07T14:07:26.846Z,14.45
2017-05-07T14:09:54.610Z,13.47
2017-05-07T14:12:22.903Z,13.43
2017-05-07T14:14:50.474Z,14.70
2017-05-07T14:17:19.507Z,14.43
2017-05-07T14:19:48.120Z,15.12
2017-05-07T14:22:15.635Z,15.15
2017-05-07T14:24:43.175Z,16.05
2017-05-07T14:27:11.667Z,13.32
2017-05-07T14:29:40.033Z,15.80
2017-05-07T14:32:08.311Z,16.63
2017-05-07T14:34:36.607Z,15.77
2017-05-07T14:37:05.223Z,13.93
2017-05-07T14:39:33.089Z,14.15
2017-05-07T14:42:00.596Z,14.00
2017-05-07T14:44:28.920Z,12.88
2017-05-07T14:46:56.423Z,11.88
2017-05-07T14:49:24.795Z,11.05
2017-05-07T14:51:53.093Z,11.97
2017-05-07T14:54:20.631Z,13.42
2017-05-07T14:56:48.896Z,10.25
2017-05-07T14:59:16.417Z,12.83
2017-05-07T15:01:44.733Z,11.25
2017-05-07T15:04:13.051Z,10.90
2017-05-07T15:06:41.508Z,11.92
2017-05-07T15:09:09.303Z,10.65
2017-05-07T15:11:37.892Z,11.65
2017-05-07T15:14:06.243Z,10.73
2017-05-07T15:16:33.900Z,12.17
2017-05-07T15:19:01.590Z,12.20
2017-05-07T15:21:29.107Z,11.52
2017-05-07T15:23:56.613Z,10.98
2017-05-07T15:26:24.487Z,11.00
2017-05-07T15:28:53.552Z,11.28
2017-05-07T15:31:21.079Z,10.98
2017-05-07T15:33:48.585Z,13.30
2017-05-07T15:36:16.460Z,12.67
2017-05-07T15:38:45.477Z,11.62
2017-05-07T15:41:14.004Z,12.70
2017-05-07T15:43:41.571Z,12.62
2017-05-07T15:46:09.890Z,13.32
2017-05-07T15:48:38.232Z,12.12
2017-05-07T15:51:05.946Z,11.97
2017-05-07T15:53:33.480Z,13.52
2017-05-07T15:56:01.777Z,11.68
2017-05-07T15:58:29.287Z,12.08
2017-05-07T16:00:58.355Z,13.03
2017-05-07T16:03:26.643Z,13.17
2017-05-07T16:05:54.192Z,12.43
2017-05-07T16:08:21.698Z,13.95
2017-05-07T16:10:49.987Z,12.65
2017-05-07T16:13:17.508Z,12.67
2017-05-07T16:15:45.024Z,13.08
2017-05-07T16:24:33.489Z,13.33
2017-05-07T16:27:07.904Z,14.10
2017-05-07T16:29:53.140Z,13.98
2017-05-07T16:32:20.697Z,14.07
2017-05-07T16:34:48.200Z,12.97
2017-05-07T16:37:16.514Z,14.88
2017-05-07T16:39:44.088Z,13.57
2017-05-07T16:42:28.011Z,13.52
2017-05-07T16:44:55.531Z,14.52
2017-05-07T16:47:23.030Z,11.53
2017-05-07T16:49:51.375Z,10.75
2017-05-07T16:52:19.968Z,10.93
2017-05-07T16:54:48.284Z,11.12
2017-05-07T16:57:16.617Z,10.88
2017-05-07T16:59:44.904Z,9.48
2017-05-07T17:02:12.447Z,10.93
2017-05-07T17:04:40.760Z,10.03
2017-05-07T17:07:15.403Z,10.47
2017-05-07T17:09:44.031Z,9.42
2017-05-07T17:12:12.308Z,11.50
2017-05-07T17:14:40.599Z,10.73
2017-05-07T17:17:08.183Z,9.42
2017-05-07T17:19:36.480Z,10.23
2017-05-07T17:22:04.339Z,10.47
2017-05-07T17:24:32.652Z,9.67
2017-05-07T17:27:00.232Z,10.16
2017-05-07T17:29:28.529Z,10.03
2017-05-07T17:31:56.059Z,10.18
2017-05-07T17:34:24.419Z,10.65
2017-05-07T17:36:53.009Z,10.40
2017-05-07T17:39:21.310Z,12.78
2017-05-07T17:41:48.850Z,11.45
2017-05-07T17:44:17.119Z,11.07
2017-05-07T17:46:45.643Z,11.58
2017-05-07T17:49:15.129Z,12.23
2017-05-07T17:51:43.451Z,11.23
2017-05-07T17:54:10.955Z,10.18
2017-05-07T17:56:40.222Z,10.45
2017-05-07T17:59:07.841Z,10.10
2017-05-07T18:01:37.464Z,11.02
2017-05-07T18:04:05.459Z,11.45
2017-05-07T18:06:33.760Z,11.45
2017-05-07T18:09:01.364Z,10.87
2017-05-07T18:11:28.879Z,11.42
2017-05-07T18:13:58.244Z,10.03
2017-05-07T18:16:25.787Z,10.53
2017-05-07T18:18:53.639Z,10.47
2017-05-07T18:21:21.487Z,9.30
2017-05-07T18:23:49.960Z,11.47
2017-05-07T18:26:18.260Z,9.97
2017-05-07T18:28:45.803Z,9.50
2017-05-07T18:31:13.303Z,10.72
2017-05-07T18:33:40.892Z,11.00
2017-05-07T18:36:08.644Z,9.95
2017-05-07T18:38:37.727Z,10.27
2017-05-07T18:41:05.283Z,10.77
2017-05-07T18:43:32.929Z,11.53
2017-05-07T18:46:00.802Z,11.78
2017-05-07T18:48:28.568Z,10.60
2017-05-07T18:50:56.184Z,9.95
2017-05-07T18:53:24.703Z,9.57
2017-05-07T18:55:52.343Z,10.20
2017-05-07T18:58:20.351Z,10.65
2017-05-07T19:00:47.920Z,10.35
2017-05-07T19:03:16.676Z,12.17
2017-05-07T19:05:44.216Z,10.77
2017-05-07T19:08:11.924Z,10.60
2017-05-07T19:10:40.249Z,10.92
2017-05-07T19:13:08.511Z,12.20
2017-05-07T19:15:36.047Z,10.85
2017-05-07T19:18:04.400Z,10.52
2017-05-07T19:20:33.595Z,11.20
2017-05-07T19:23:01.332Z,10.40
2017-05-07T19:25:29.036Z,11.32
2017-05-07T19:27:56.776Z,13.00
2017-05-07T19:30:24.305Z,12.05
2017-05-07T19:32:52.703Z,13.38
2017-05-07T19:35:21.389Z,12.05
2017-05-07T19:37:50.335Z,12.12
2017-05-07T19:40:18.015Z,12.82
2017-05-07T19:42:46.527Z,12.40
2017-05-07T19:45:14.062Z,12.13
2017-05-07T19:47:42.418Z,11.62
2017-05-07T19:50:10.433Z,11.72
2017-05-07T19:52:38.980Z,12.75
2017-05-07T19:55:07.496Z,11.30
2017-05-07T19:57:35.934Z,10.95
2017-05-07T20:00:04.412Z,12.62
2017-05-07T20:02:33.080Z,12.88
2017-05-07T20:05:01.631Z,12.68
2017-05-07T20:07:30.383Z,18.62
2017-05-07T20:10:00.180Z,23.92
2017-05-07T20:12:28.234Z,24.60
2017-05-07T20:14:55.861Z,24.57
2017-05-07T20:17:24.612Z,22.75
2017-05-07T20:19:53.057Z,20.08
2017-05-07T20:22:20.597Z,18.90
2017-05-07T20:24:48.700Z,18.15
2017-05-07T20:27:17.348Z,16.62
2017-05-07T20:29:44.876Z,16.15
2017-05-07T20:32:12.903Z,16.88
2017-05-07T20:34:41.883Z,15.00
2017-05-07T20:37:10.416Z,14.93
2017-05-07T20:39:38.241Z,14.25
2017-05-07T20:42:05.792Z,15.57
2017-05-07T20:44:34.071Z,15.43
2017-05-07T20:47:02.401Z,14.30
2017-05-07T20:49:30.969Z,14.50
2017-05-07T20:51:58.472Z,15.35
2017-05-07T20:54:26.828Z,15.48
2017-05-07T20:56:54.395Z,13.98
2017-05-07T20:59:22.744Z,13.33
2017-05-07T21:01:51.057Z,13.20
2017-05-07T21:04:18.568Z,13.78
2017-05-07T21:06:46.884Z,13.62
2017-05-07T21:09:14.420Z,13.88
2017-05-07T21:11:42.765Z,14.27
2017-05-07T21:14:12.087Z,11.87
2017-05-07T21:16:40.427Z,13.25
2017-05-07T21:19:07.960Z,14.27
2017-05-07T21:21:35.484Z,15.60
2017-05-07T21:24:03.784Z,14.58
2017-05-07T21:26:31.361Z,15.10
2017-05-07T21:28:59.672Z,13.30
2017-05-07T21:31:27.221Z,13.43
2017-05-07T21:33:54.789Z,15.87
2017-05-07T21:36:22.343Z,14.47
2017-05-07T21:38:49.960Z,14.25
2017-05-07T21:41:17.537Z,13.80
2017-05-07T21:43:45.051Z,13.13
2017-05-07T21:46:12.579Z,14.32
2017-05-07T21:48:40.095Z,12.67
2017-05-07T21:51:07.631Z,13.78
2017-05-07T21:53:35.976Z,13.95
2017-05-07T21:56:04.279Z,13.82
2017-05-07T21:58:31.804Z,13.62
2017-05-07T22:01:00.378Z,14.73
2017-05-07T22:03:29.479Z,13.58
2017-05-07T22:05:56.976Z,15.02
2017-05-07T22:08:24.546Z,12.87
2017-05-07T22:10:52.070Z,13.05
2017-05-07T22:13:19.572Z,13.75
2017-05-07T22:15:47.136Z,12.40
2017-05-07T22:18:14.640Z,14.50
2017-05-07T22:20:43.079Z,14.28
2017-05-07T22:23:12.100Z,13.13
2017-05-07T22:25:40.431Z,14.67
2017-05-07T22:28:08.283Z,12.53
2017-05-07T22:30:35.845Z,12.77
2017-05-07T22:33:03.374Z,13.10
2017-05-07T22:35:31.165Z,13.47
2017-05-07T22:37:58.728Z,13.23
2017-05-07T22:40:26.603Z,14.15
2017-05-07T22:42:54.101Z,13.68
2017-05-07T22:45:22.728Z,12.85
2017-05-07T22:47:50.248Z,14.33
2017-05-07T22:50:17.828Z,13.42
2017-05-07T22:52:45.605Z,12.75
2017-05-07T22:55:13.127Z,14.05
2017-05-07T22:57:40.628Z,13.08
2017-05-07T23:00:08.479Z,13.28
2017-05-07T23:02:36.347Z,13.68
2017-05-07T23:05:04.619Z,13.83
2017-05-07T23:07:32.931Z,13.38
2017-05-07T23:10:00.434Z,11.55
2017-05-07T23:12:28.072Z,11.52
2017-05-07T23:14:56.339Z,11.48
2017-05-07T23:17:24.663Z,11.03
2017-05-07T23:19:52.961Z,11.80
2017-05-07T23:22:22.232Z,13.10
2017-05-07T23:24:49.724Z,12.02
2017-05-07T23:27:18.749Z,11.53
2017-05-07T23:29:46.243Z,12.87
2017-05-07T23:32:14.576Z,11.40
2017-05-07T23:34:42.145Z,12.02
2017-05-07T23:37:09.934Z,13.68
2017-05-07T23:39:37.473Z,13.67
2017-05-07T23:42:05.003Z,14.60
2017-05-07T23:44:33.528Z,14.37
2017-05-07T23:47:01.832Z,15.08
2017-05-07T23:49:29.352Z,16.47
2017-05-07T23:51:56.843Z,14.95
2017-05-07T23:54:24.457Z,14.05
2017-05-07T23:56:52.738Z,14.52
2017-05-07T23:59:20.511Z,11.58
